Terminal Aerodrome Forecast
Issued by NWS Wilmington, OH

Current Version | Previous Version | Graphics & Text | Print | Product List | Glossary On
Versions: 1 2 3 4 5 6 7 8 9 10 11 12 13 14 15 16 17 18 19 20 21 22 23 24 25 26 27 28 29
000
FTUS41 KILN 301121
TAFDAY
TAF
KDAY 301121Z 3012/0112 15010KT 2SM BR SCT002 BKN035 WS020/21035KT
      TEMPO 3012/3013 1/4SM FG VV001
     FM301400 19015G22KT P6SM SCT035 BKN130
     FM010100 17014G19KT P6SM VCSH SCT035 BKN130
     FM010300 17014G20KT P6SM VCSH SCT030 BKN120 WS020/18045KT
     FM010500 17016G22KT P6SM -SHRA VCTS SCT030CB OVC090
      WS020/18050KT
     FM010700 18017G25KT P6SM -SHRA VCTS SCT015 OVC045CB
     FM010900 19016G25KT P6SM -SHRA VCTS OVC015CB=

USA.gov is the U.S. government's official web portal to all federal, state and local government web resources and services.